Time;durP1;ratioP1;P1;durP2;ratioP2;P2;SDS_P1;SDS_P2;PMS_P1;PMS_P2;Temp;Humidity;BMP_temperature;BMP_pressure;BME280_temperature;BME280_humidity;BME280_pressure;Samples;Min_cycle;Max_cycle;Signal;HPM_P1;HPM_P2
2021/12/26 00:00:47;;;;;;;9.40;7.60;;;;;;;;;;2073174;28;20463;-59
2021/12/26 00:01:47;;;;;;;7.67;6.60;;;;;;;;;;2069895;28;20648;-62
2021/12/26 00:02:47;;;;;;;8.40;7.23;;;;;;;;;;2079246;28;20424;-59
2021/12/26 00:03:48;;;;;;;8.37;7.00;;;;;;;;;;2087045;28;20179;-57
2021/12/26 00:04:48;;;;;;;8.37;7.13;;;;;;;;;;2084717;28;20179;-57
2021/12/26 00:05:49;;;;;;;8.77;7.00;;;;;;;;;;2082142;28;20184;-59
2021/12/26 00:06:49;;;;;;;8.67;7.57;;;;;;;;;;2082036;28;20698;-59
2021/12/26 00:07:50;;;;;;;9.33;7.60;;;;;;;;;;2079674;28;20589;-60
2021/12/26 00:08:50;;;;;;;7.20;6.30;;;;;;;;;;2081185;28;20677;-62
2021/12/26 00:09:50;;;;;;;13.17;7.40;;;;;;;;;;2081407;28;20179;-61
2021/12/26 00:10:51;;;;;;;12.33;7.30;;;;;;;;;;2082227;28;20194;-56
2021/12/26 00:11:52;;;;;;;7.47;6.77;;;;;;;;;;2079859;28;20267;-60
2021/12/26 00:12:53;;;;;;;8.60;6.63;;;;;;;;;;2081544;28;20559;-54
2021/12/26 00:13:55;;;;;;;6.83;6.30;;;;;;;;;;2081544;28;20548;-61
2021/12/26 00:14:55;;;;;;;9.27;6.83;;;;;;;;;;2081548;28;20668;-60
2021/12/26 00:15:56;;;;;;;8.03;6.73;;;;;;;;;;2080535;28;20532;-61
2021/12/26 00:16:56;;;;;;;7.80;7.00;;;;;;;;;;2081077;28;20585;-59
2021/12/26 00:17:56;;;;;;;9.67;7.40;;;;;;;;;;2080593;28;20542;-58
2021/12/26 00:18:57;;;;;;;11.03;7.20;;;;;;;;;;2080240;28;20273;-59
2021/12/26 00:19:57;;;;;;;8.33;6.37;;;;;;;;;;2080875;28;20179;-60
2021/12/26 00:20:58;;;;;;;7.23;6.53;;;;;;;;;;2080855;28;20173;-60
2021/12/26 00:21:58;;;;;;;8.43;7.33;;;;;;;;;;2082163;28;20176;-62
2021/12/26 00:22:58;;;;;;;8.30;6.80;;;;;;;;;;2080208;28;20171;-59
2021/12/26 00:23:59;;;;;;;7.73;6.87;;;;;;;;;;2080811;28;20168;-57
2021/12/26 00:25:00;;;;;;;7.17;6.50;;;;;;;;;;2081760;28;20184;-59
2021/12/26 00:26:00;;;;;;;7.40;6.27;;;;;;;;;;2082104;28;20223;-60
2021/12/26 00:27:01;;;;;;;7.77;6.97;;;;;;;;;;2079457;28;20495;-60
2021/12/26 00:28:01;;;;;;;7.80;7.10;;;;;;;;;;2079599;28;20208;-57
2021/12/26 00:29:02;;;;;;;8.23;7.53;;;;;;;;;;2077745;28;20281;-57
2021/12/26 00:30:08;;;;;;;8.57;7.63;;;;;;;;;;2088778;28;20640;-57
2021/12/26 00:31:09;;;;;;;7.77;6.93;;;;;;;;;;2084652;28;20420;-60
2021/12/26 00:32:09;;;;;;;6.77;6.27;;;;;;;;;;2073823;28;20977;-59
2021/12/26 00:33:11;;;;;;;8.80;7.70;;;;;;;;;;2059420;28;20158;-58
2021/12/26 00:34:11;;;;;;;6.53;5.90;;;;;;;;;;2057574;28;20396;-55
2021/12/26 00:35:13;;;;;;;6.93;6.40;;;;;;;;;;2073089;28;20184;-62
2021/12/26 00:36:13;;;;;;;7.23;6.63;;;;;;;;;;2068527;28;20201;-60
2021/12/26 00:37:13;;;;;;;8.27;6.20;;;;;;;;;;2066509;28;20414;-60
2021/12/26 00:38:14;;;;;;;8.03;7.03;;;;;;;;;;2081984;28;20617;-58
2021/12/26 00:39:15;;;;;;;10.70;7.27;;;;;;;;;;2072667;28;20197;-60
2021/12/26 00:40:19;;;;;;;8.07;6.93;;;;;;;;;;2079375;28;20763;-58
2021/12/26 00:41:19;;;;;;;6.93;6.23;;;;;;;;;;2081929;28;20401;-60
2021/12/26 00:42:19;;;;;;;9.90;7.50;;;;;;;;;;2074724;28;21002;-59
2021/12/26 00:43:20;;;;;;;7.47;6.77;;;;;;;;;;2066671;28;20189;-60
2021/12/26 00:44:20;;;;;;;11.17;7.93;;;;;;;;;;2071518;28;20168;-60
2021/12/26 00:45:21;;;;;;;8.90;6.77;;;;;;;;;;2073649;28;20262;-60
2021/12/26 00:46:22;;;;;;;7.77;7.03;;;;;;;;;;2073285;28;20728;-59
2021/12/26 00:47:22;;;;;;;7.07;6.47;;;;;;;;;;2082147;28;20191;-53
2021/12/26 00:48:22;;;;;;;9.90;7.00;;;;;;;;;;2073258;28;20749;-59
2021/12/26 00:49:23;;;;;;;7.73;6.93;;;;;;;;;;2074265;28;20276;-59
2021/12/26 00:50:25;;;;;;;8.20;7.33;;;;;;;;;;2077330;28;20641;-59
2021/12/26 00:51:26;;;;;;;8.27;7.33;;;;;;;;;;2075549;28;20165;-57
2021/12/26 00:52:26;;;;;;;8.97;7.30;;;;;;;;;;2066731;28;20971;-60
2021/12/26 00:53:28;;;;;;;8.33;6.70;;;;;;;;;;2070494;28;20562;-58
2021/12/26 00:54:28;;;;;;;8.97;7.50;;;;;;;;;;2064849;28;20289;-59
2021/12/26 00:55:29;;;;;;;8.73;7.37;;;;;;;;;;2073080;28;20984;-59
2021/12/26 00:56:29;;;;;;;7.93;7.13;;;;;;;;;;2079523;28;20172;-61
2021/12/26 00:57:30;;;;;;;9.43;7.50;;;;;;;;;;2073044;28;20184;-61
2021/12/26 00:58:31;;;;;;;8.13;7.10;;;;;;;;;;2072768;28;20710;-61
2021/12/26 00:59:32;;;;;;;8.87;8.13;;;;;;;;;;2063861;28;20236;-60
2021/12/26 01:00:33;;;;;;;9.07;7.60;;;;;;;;;;2065255;28;20213;-59
2021/12/26 01:01:34;;;;;;;8.43;7.57;;;;;;;;;;2060792;28;20196;-59
2021/12/26 01:02:34;;;;;;;9.27;8.47;;;;;;;;;;2074948;28;20953;-59
2021/12/26 01:03:35;;;;;;;10.87;7.63;;;;;;;;;;2077143;28;20255;-59
2021/12/26 01:04:35;;;;;;;8.93;7.33;;;;;;;;;;2081018;28;20207;-58
2021/12/26 01:05:37;;;;;;;11.47;7.63;;;;;;;;;;2080337;28;20172;-60
2021/12/26 01:06:37;;;;;;;7.77;7.07;;;;;;;;;;2068823;28;20228;-57
2021/12/26 01:07:51;;;;;;;9.07;7.90;;;;;;;;;;2065407;28;20893;-62
2021/12/26 01:08:52;;;;;;;8.27;7.47;;;;;;;;;;2064275;28;20177;-58
2021/12/26 01:09:53;;;;;;;9.37;7.20;;;;;;;;;;2065974;28;20516;-60
2021/12/26 01:10:58;;;;;;;12.60;7.80;;;;;;;;;;2071337;28;20450;-58
2021/12/26 01:12:11;;;;;;;8.57;7.07;;;;;;;;;;2080691;28;20413;-59
2021/12/26 01:13:23;;;;;;;7.83;6.97;;;;;;;;;;2064887;28;20951;-62
2021/12/26 01:14:30;;;;;;;7.40;6.70;;;;;;;;;;2068008;28;20407;-60
2021/12/26 01:15:33;;;;;;;8.90;7.97;;;;;;;;;;2076820;28;20421;-58
2021/12/26 01:16:49;;;;;;;8.03;7.00;;;;;;;;;;2059466;28;20490;-57
2021/12/26 01:17:56;;;;;;;15.33;11.17;;;;;;;;;;2053961;28;20439;-56
2021/12/26 01:19:08;;;;;;;11.10;9.17;;;;;;;;;;2076531;23;20583;-56
2021/12/26 01:20:12;;;;;;;11.10;10.07;;;;;;;;;;2065034;28;20411;-58
2021/12/26 01:21:18;;;;;;;13.33;10.30;;;;;;;;;;2057136;28;20428;-59
2021/12/26 01:22:23;;;;;;;19.60;14.80;;;;;;;;;;2066115;28;20983;-58
2021/12/26 01:23:33;;;;;;;9.57;8.53;;;;;;;;;;2064417;28;20403;-55
2021/12/26 01:24:34;;;;;;;13.13;10.37;;;;;;;;;;2063713;28;20832;-56
2021/12/26 01:25:35;;;;;;;15.07;11.37;;;;;;;;;;2065445;28;20185;-61
2021/12/26 01:26:36;;;;;;;13.47;10.70;;;;;;;;;;2073182;28;20205;-59
2021/12/26 01:27:36;;;;;;;14.27;10.57;;;;;;;;;;2073884;28;20224;-60
2021/12/26 01:28:36;;;;;;;14.47;12.07;;;;;;;;;;2065053;28;20204;-58
2021/12/26 01:29:40;;;;;;;14.67;9.67;;;;;;;;;;2056347;28;20197;-57
2021/12/26 01:30:41;;;;;;;12.27;11.03;;;;;;;;;;2048426;28;20806;-56
2021/12/26 01:31:43;;;;;;;9.87;8.77;;;;;;;;;;2048586;28;20417;-58
2021/12/26 01:33:01;;;;;;;10.20;8.70;;;;;;;;;;2059062;28;20392;-58
2021/12/26 01:34:40;;;;;;;10.50;8.77;;;;;;;;;;2040155;29;20418;-57
2021/12/26 01:35:59;;;;;;;7.97;7.17;;;;;;;;;;2039186;29;20398;-58
2021/12/26 01:37:13;;;;;;;8.73;8.00;;;;;;;;;;2032329;29;20444;-61
2021/12/26 01:38:22;;;;;;;8.83;7.97;;;;;;;;;;2027179;29;20431;-58
2021/12/26 01:39:23;;;;;;;11.87;7.30;;;;;;;;;;2028862;29;20439;-58
2021/12/26 01:40:36;;;;;;;8.47;7.67;;;;;;;;;;2049454;28;20186;-56
2021/12/26 01:41:45;;;;;;;9.63;7.77;;;;;;;;;;2057728;28;20439;-55
2021/12/26 01:43:02;;;;;;;11.03;7.67;;;;;;;;;;2050257;28;20436;-57
2021/12/26 01:44:14;;;;;;;9.10;7.80;;;;;;;;;;2062985;28;20435;-58
2021/12/26 01:45:22;;;;;;;9.00;8.07;;;;;;;;;;2064059;28;20384;-55
2021/12/26 01:46:36;;;;;;;12.37;7.47;;;;;;;;;;2052743;28;20416;-57
2021/12/26 01:47:36;;;;;;;8.17;7.30;;;;;;;;;;2056895;28;20455;-58
2021/12/26 01:48:36;;;;;;;9.83;8.50;;;;;;;;;;2064102;28;20307;-59
2021/12/26 01:49:37;;;;;;;12.90;7.77;;;;;;;;;;2056778;28;20204;-60
2021/12/26 01:50:37;;;;;;;8.77;7.20;;;;;;;;;;2054551;28;20221;-59
2021/12/26 01:51:38;;;;;;;10.43;8.40;;;;;;;;;;2048802;29;20280;-59
2021/12/26 01:52:40;;;;;;;8.67;7.57;;;;;;;;;;2049957;28;20546;-62
2021/12/26 01:53:41;;;;;;;8.67;7.63;;;;;;;;;;2055921;28;20188;-59
2021/12/26 01:54:59;;;;;;;8.07;7.27;;;;;;;;;;2051075;28;20409;-59
2021/12/26 01:55:59;;;;;;;7.93;7.13;;;;;;;;;;2051136;28;20186;-58
2021/12/26 01:57:00;;;;;;;8.13;7.33;;;;;;;;;;2057649;28;20415;-58
2021/12/26 01:58:01;;;;;;;8.37;7.43;;;;;;;;;;2056864;28;20615;-58
2021/12/26 01:59:03;;;;;;;10.13;7.57;;;;;;;;;;2056058;28;20802;-60
2021/12/26 02:00:23;;;;;;;9.00;7.27;;;;;;;;;;2054882;28;20416;-56
2021/12/26 02:01:23;;;;;;;8.63;7.83;;;;;;;;;;2056968;28;20416;-59
2021/12/26 02:02:23;;;;;;;8.03;7.23;;;;;;;;;;2065627;28;20987;-57
2021/12/26 02:03:25;;;;;;;8.40;7.60;;;;;;;;;;2064432;28;20954;-58
2021/12/26 02:04:29;;;;;;;7.87;7.17;;;;;;;;;;2056185;28;20427;-57
2021/12/26 02:05:30;;;;;;;9.50;7.53;;;;;;;;;;2051584;28;20189;-56
2021/12/26 02:06:36;;;;;;;8.10;7.30;;;;;;;;;;2052728;28;20433;-57
2021/12/26 02:07:37;;;;;;;8.07;7.27;;;;;;;;;;2047978;28;20973;-56
2021/12/26 02:08:37;;;;;;;8.23;7.40;;;;;;;;;;2048042;28;20181;-59
2021/12/26 02:09:39;;;;;;;8.23;7.47;;;;;;;;;;2055473;28;20194;-56
2021/12/26 02:10:40;;;;;;;7.87;7.10;;;;;;;;;;2056392;28;20431;-57
2021/12/26 02:11:40;;;;;;;8.00;7.30;;;;;;;;;;2047576;28;20175;-58
2021/12/26 02:12:42;;;;;;;10.30;7.33;;;;;;;;;;2055945;28;20206;-59
2021/12/26 02:13:43;;;;;;;8.07;7.37;;;;;;;;;;2056271;28;20420;-54
2021/12/26 02:14:44;;;;;;;7.93;7.23;;;;;;;;;;2064963;28;20182;-58
2021/12/26 02:16:08;;;;;;;9.47;8.03;;;;;;;;;;2036103;29;20406;-57
2021/12/26 02:17:08;;;;;;;8.97;7.80;;;;;;;;;;2048449;28;20806;-58
2021/12/26 02:18:10;;;;;;;9.47;8.60;;;;;;;;;;2056154;28;20460;-60
2021/12/26 02:19:10;;;;;;;11.30;7.20;;;;;;;;;;2055442;28;20266;-59
2021/12/26 02:20:29;;;;;;;8.30;7.57;;;;;;;;;;2056900;28;20468;-59
2021/12/26 02:21:59;;;;;;;7.23;6.53;;;;;;;;;;2056811;28;20574;-59
2021/12/26 02:23:08;;;;;;;8.20;6.10;;;;;;;;;;2059682;28;20498;-57
2021/12/26 02:24:18;;;;;;;7.10;6.37;;;;;;;;;;2063948;28;20481;-59
2021/12/26 02:27:46;;;;;;;7.53;6.93;;;;;;;;;;2056082;28;20447;-62
2021/12/26 02:28:47;;;;;;;7.73;6.83;;;;;;;;;;2048318;28;20965;-60
2021/12/26 02:29:48;;;;;;;7.53;6.83;;;;;;;;;;2056536;28;20408;-58
2021/12/26 02:30:49;;;;;;;8.53;7.03;;;;;;;;;;2056115;28;20670;-58
2021/12/26 02:31:49;;;;;;;8.30;7.10;;;;;;;;;;2051398;28;20193;-58
2021/12/26 02:32:50;;;;;;;7.27;6.57;;;;;;;;;;2064927;28;20181;-55
2021/12/26 02:33:51;;;;;;;6.93;6.23;;;;;;;;;;2056222;28;20174;-57
2021/12/26 02:34:52;;;;;;;7.50;6.80;;;;;;;;;;2048309;29;20412;-57
2021/12/26 02:35:53;;;;;;;9.47;7.37;;;;;;;;;;2056251;28;20171;-56
2021/12/26 02:36:54;;;;;;;7.37;6.73;;;;;;;;;;2054042;28;20181;-58
2021/12/26 02:37:54;;;;;;;10.30;7.00;;;;;;;;;;2054201;28;20503;-58
2021/12/26 02:38:54;;;;;;;7.23;6.50;;;;;;;;;;2064076;28;20272;-57
2021/12/26 02:39:55;;;;;;;7.30;6.60;;;;;;;;;;2057597;28;20182;-56
2021/12/26 02:40:55;;;;;;;7.80;6.50;;;;;;;;;;2048392;28;20230;-56
2021/12/26 02:41:56;;;;;;;6.67;6.07;;;;;;;;;;2056195;28;20186;-57
2021/12/26 02:42:56;;;;;;;7.73;7.03;;;;;;;;;;2056012;28;20447;-54
2021/12/26 02:43:58;;;;;;;7.40;6.90;;;;;;;;;;2056160;28;20651;-55
2021/12/26 02:44:58;;;;;;;6.67;5.93;;;;;;;;;;2055664;28;20213;-58
2021/12/26 02:46:05;;;;;;;8.47;7.10;;;;;;;;;;2055972;28;21028;-58
2021/12/26 02:47:05;;;;;;;8.20;7.23;;;;;;;;;;2056673;28;20190;-58
2021/12/26 02:48:07;;;;;;;7.10;5.87;;;;;;;;;;2056080;28;20543;-56
2021/12/26 02:49:08;;;;;;;7.07;6.47;;;;;;;;;;2047906;28;20236;-56
2021/12/26 02:50:14;;;;;;;9.00;6.60;;;;;;;;;;2048474;28;20843;-57
2021/12/26 02:51:14;;;;;;;7.50;6.90;;;;;;;;;;2052837;28;21029;-58
2021/12/26 02:52:14;;;;;;;6.80;6.20;;;;;;;;;;2043598;29;20461;-59
2021/12/26 02:53:20;;;;;;;6.57;6.07;;;;;;;;;;2056688;28;20237;-61
2021/12/26 02:54:24;;;;;;;7.90;6.03;;;;;;;;;;2056291;28;20261;-58
2021/12/26 02:55:25;;;;;;;6.37;5.83;;;;;;;;;;2055906;28;20405;-57
2021/12/26 02:56:26;;;;;;;6.87;6.27;;;;;;;;;;2050348;28;20757;-59
2021/12/26 02:57:27;;;;;;;6.97;6.37;;;;;;;;;;2047538;28;20182;-55
2021/12/26 02:58:27;;;;;;;9.73;6.27;;;;;;;;;;2056288;28;20520;-58
2021/12/26 02:59:31;;;;;;;7.40;6.73;;;;;;;;;;2055737;28;20202;-59
2021/12/26 03:00:34;;;;;;;7.43;6.53;;;;;;;;;;2056364;28;20181;-58
2021/12/26 03:01:34;;;;;;;6.90;6.30;;;;;;;;;;2064703;28;20988;-57
2021/12/26 03:02:39;;;;;;;6.80;6.17;;;;;;;;;;2063897;28;20447;-57
2021/12/26 03:03:40;;;;;;;6.80;6.20;;;;;;;;;;2061809;28;20419;-57
2021/12/26 03:04:40;;;;;;;6.83;6.23;;;;;;;;;;2061110;28;20411;-56
2021/12/26 03:05:42;;;;;;;6.83;6.23;;;;;;;;;;2064233;28;20586;-55
2021/12/26 03:07:00;;;;;;;7.30;5.83;;;;;;;;;;2063761;28;20193;-56
2021/12/26 03:08:01;;;;;;;7.10;6.40;;;;;;;;;;2064195;28;20489;-60
2021/12/26 03:09:03;;;;;;;6.97;6.37;;;;;;;;;;2064070;28;20427;-59
2021/12/26 03:10:05;;;;;;;6.90;6.20;;;;;;;;;;2064907;28;20226;-58
2021/12/26 03:11:05;;;;;;;7.27;6.67;;;;;;;;;;2064972;28;20442;-56
2021/12/26 03:12:06;;;;;;;8.23;5.90;;;;;;;;;;2064982;28;20439;-52
2021/12/26 03:13:11;;;;;;;6.73;6.13;;;;;;;;;;2056374;28;20718;-55
2021/12/26 03:14:11;;;;;;;7.03;6.37;;;;;;;;;;2049395;28;20195;-58
2021/12/26 03:15:11;;;;;;;7.30;6.60;;;;;;;;;;2063262;28;20411;-61
2021/12/26 03:16:12;;;;;;;8.13;6.30;;;;;;;;;;2069054;28;20548;-56
2021/12/26 03:17:13;;;;;;;6.57;6.07;;;;;;;;;;2064049;28;20181;-56
2021/12/26 03:18:14;;;;;;;6.93;6.23;;;;;;;;;;2063930;28;20184;-60
2021/12/26 03:19:14;;;;;;;7.10;6.50;;;;;;;;;;2063216;28;20502;-58
2021/12/26 03:20:17;;;;;;;7.27;6.53;;;;;;;;;;2055187;28;20178;-61
2021/12/26 03:21:19;;;;;;;6.40;5.90;;;;;;;;;;2056379;28;20220;-61
2021/12/26 03:22:24;;;;;;;8.03;6.17;;;;;;;;;;2063366;28;21061;-59
2021/12/26 03:23:25;;;;;;;7.63;6.80;;;;;;;;;;2059314;28;20413;-57
2021/12/26 03:24:25;;;;;;;7.20;5.60;;;;;;;;;;2063708;28;20470;-59
2021/12/26 03:25:26;;;;;;;6.93;6.43;;;;;;;;;;2063949;28;20438;-59
2021/12/26 03:26:26;;;;;;;6.83;6.30;;;;;;;;;;2056382;28;20487;-61
2021/12/26 03:27:27;;;;;;;6.70;6.03;;;;;;;;;;2047608;29;20175;-60
2021/12/26 03:28:28;;;;;;;6.60;6.00;;;;;;;;;;2047962;29;20186;-61
2021/12/26 03:29:28;;;;;;;7.73;6.93;;;;;;;;;;2047489;29;20221;-56
2021/12/26 03:30:30;;;;;;;7.00;6.40;;;;;;;;;;2043474;28;20568;-58
2021/12/26 03:31:31;;;;;;;6.90;6.30;;;;;;;;;;2055905;28;20818;-61
2021/12/26 03:32:32;;;;;;;6.27;5.77;;;;;;;;;;2055762;28;20424;-60
2021/12/26 03:33:32;;;;;;;7.13;6.47;;;;;;;;;;2063917;28;20606;-59
2021/12/26 03:34:32;;;;;;;6.60;6.00;;;;;;;;;;2055896;28;20237;-61
2021/12/26 03:35:33;;;;;;;7.23;6.53;;;;;;;;;;2055944;28;20176;-59
2021/12/26 03:36:34;;;;;;;6.70;6.10;;;;;;;;;;2051956;28;20881;-57
2021/12/26 03:37:35;;;;;;;8.80;7.20;;;;;;;;;;2048256;29;20420;-52
2021/12/26 03:38:41;;;;;;;6.13;5.63;;;;;;;;;;2045196;28;20812;-57
2021/12/26 03:39:45;;;;;;;6.63;6.03;;;;;;;;;;2055827;28;20924;-58
2021/12/26 03:40:46;;;;;;;7.23;6.53;;;;;;;;;;2064132;28;20485;-55
2021/12/26 03:41:46;;;;;;;7.27;6.57;;;;;;;;;;2055746;28;20205;-55
2021/12/26 03:42:47;;;;;;;7.17;6.57;;;;;;;;;;2047352;29;20175;-57
2021/12/26 03:43:47;;;;;;;6.77;6.23;;;;;;;;;;2056321;28;20178;-57
2021/12/26 03:44:48;;;;;;;7.27;6.57;;;;;;;;;;2064044;28;20209;-53
2021/12/26 03:45:50;;;;;;;6.87;6.20;;;;;;;;;;2055989;28;20709;-55
2021/12/26 03:46:50;;;;;;;6.80;6.10;;;;;;;;;;2055562;28;20455;-56
2021/12/26 03:47:51;;;;;;;6.93;6.20;;;;;;;;;;2056233;28;20455;-55
2021/12/26 03:48:51;;;;;;;7.03;6.43;;;;;;;;;;2063749;28;20209;-57
2021/12/26 03:49:53;;;;;;;6.37;5.93;;;;;;;;;;2053707;28;20170;-59
2021/12/26 03:50:54;;;;;;;7.30;6.57;;;;;;;;;;2056357;28;20276;-55
2021/12/26 03:51:55;;;;;;;6.90;6.20;;;;;;;;;;2064509;28;20445;-54
2021/12/26 03:52:57;;;;;;;6.50;6.00;;;;;;;;;;2056371;28;20408;-58
2021/12/26 03:53:57;;;;;;;9.00;6.47;;;;;;;;;;2056067;28;20269;-54
2021/12/26 03:54:57;;;;;;;6.80;6.20;;;;;;;;;;2064885;28;20917;-57
2021/12/26 03:55:58;;;;;;;6.20;5.67;;;;;;;;;;2056052;28;20862;-56
2021/12/26 03:57:00;;;;;;;6.40;5.77;;;;;;;;;;2048817;28;20213;-58
2021/12/26 03:58:01;;;;;;;6.70;6.10;;;;;;;;;;2041269;29;20849;-60
2021/12/26 03:59:02;;;;;;;6.37;5.53;;;;;;;;;;2055364;28;20507;-57
2021/12/26 04:00:04;;;;;;;6.97;6.47;;;;;;;;;;2063246;28;20292;-60
2021/12/26 04:01:15;;;;;;;6.43;5.83;;;;;;;;;;2064505;28;20166;-59
2021/12/26 04:02:15;;;;;;;8.97;5.93;;;;;;;;;;2063950;28;20431;-60
2021/12/26 04:03:16;;;;;;;6.93;5.80;;;;;;;;;;2062830;28;20173;-61
2021/12/26 04:04:25;;;;;;;6.30;5.67;;;;;;;;;;2061133;28;20705;-60
2021/12/26 04:05:25;;;;;;;5.90;5.40;;;;;;;;;;2054220;28;20443;-58
2021/12/26 04:06:26;;;;;;;6.07;5.57;;;;;;;;;;2053581;28;20186;-59
2021/12/26 04:07:26;;;;;;;6.23;5.70;;;;;;;;;;2056467;28;20186;-60
2021/12/26 04:08:27;;;;;;;5.57;5.13;;;;;;;;;;2064199;28;20170;-56
2021/12/26 04:09:28;;;;;;;7.07;5.57;;;;;;;;;;2064369;28;20689;-60
2021/12/26 04:10:28;;;;;;;6.33;5.77;;;;;;;;;;2064367;28;20662;-58
2021/12/26 04:11:29;;;;;;;6.73;6.27;;;;;;;;;;2057475;28;20323;-57
2021/12/26 04:12:35;;;;;;;6.47;5.90;;;;;;;;;;2048908;28;20182;-56
2021/12/26 04:13:36;;;;;;;5.83;5.40;;;;;;;;;;2049235;28;20183;-57
2021/12/26 04:14:37;;;;;;;7.07;6.37;;;;;;;;;;2056683;28;20972;-60
2021/12/26 04:15:37;;;;;;;5.87;5.37;;;;;;;;;;2056444;28;20265;-58
2021/12/26 04:16:38;;;;;;;6.67;5.63;;;;;;;;;;2064678;28;20217;-60
2021/12/26 04:17:38;;;;;;;5.83;5.33;;;;;;;;;;2046944;29;20261;-60
2021/12/26 04:18:38;;;;;;;6.37;5.77;;;;;;;;;;2036811;29;20239;-59
2021/12/26 04:19:41;;;;;;;5.53;5.03;;;;;;;;;;2056092;28;20291;-61
2021/12/26 04:20:42;;;;;;;6.57;6.07;;;;;;;;;;2055064;28;20420;-58
2021/12/26 04:21:42;;;;;;;5.60;5.20;;;;;;;;;;2053276;28;20213;-58
2021/12/26 04:22:43;;;;;;;5.97;5.47;;;;;;;;;;2056775;28;20189;-60
2021/12/26 04:23:43;;;;;;;5.97;5.47;;;;;;;;;;2047052;29;20526;-59
2021/12/26 04:24:43;;;;;;;6.17;5.57;;;;;;;;;;2053317;28;20174;-61
2021/12/26 04:25:44;;;;;;;5.90;5.30;;;;;;;;;;2065138;28;20189;-61
2021/12/26 04:26:44;;;;;;;5.90;5.33;;;;;;;;;;2064124;28;20196;-59
2021/12/26 04:27:45;;;;;;;5.87;5.27;;;;;;;;;;2055990;28;20202;-59
2021/12/26 04:28:45;;;;;;;6.00;5.50;;;;;;;;;;2055969;28;20755;-60
2021/12/26 04:29:45;;;;;;;6.23;5.73;;;;;;;;;;2055772;28;20170;-59
2021/12/26 04:30:46;;;;;;;5.37;4.97;;;;;;;;;;2055772;28;20173;-62
2021/12/26 04:31:47;;;;;;;5.90;5.30;;;;;;;;;;2053060;28;20198;-58
2021/12/26 04:32:47;;;;;;;5.80;5.30;;;;;;;;;;2047758;29;20420;-60
2021/12/26 04:33:49;;;;;;;5.83;5.43;;;;;;;;;;2051889;28;20168;-60
2021/12/26 04:34:49;;;;;;;5.83;5.43;;;;;;;;;;2061196;28;20438;-59
2021/12/26 04:35:50;;;;;;;6.17;5.53;;;;;;;;;;2055714;28;20170;-60
2021/12/26 04:36:51;;;;;;;4.97;4.50;;;;;;;;;;2055727;28;20416;-59
2021/12/26 04:37:51;;;;;;;5.30;4.73;;;;;;;;;;2056036;28;20182;-58
2021/12/26 04:38:51;;;;;;;6.10;5.60;;;;;;;;;;2047679;28;20300;-56
2021/12/26 04:39:52;;;;;;;6.23;5.70;;;;;;;;;;2042869;29;20184;-59
2021/12/26 04:40:52;;;;;;;5.60;5.07;;;;;;;;;;2054949;28;20569;-59
2021/12/26 04:42:05;;;;;;;5.03;4.60;;;;;;;;;;2064451;28;20186;-59
2021/12/26 04:43:35;;;;;;;4.97;4.67;;;;;;;;;;2056382;28;20446;-58
2021/12/26 04:44:58;;;;;;;4.90;4.60;;;;;;;;;;2062331;28;20424;-55
2021/12/26 04:46:36;;;;;;;4.70;4.30;;;;;;;;;;2065547;28;20428;-59
2021/12/26 04:47:39;;;;;;;5.13;4.63;;;;;;;;;;2056167;28;20470;-61
2021/12/26 04:48:42;;;;;;;5.47;4.97;;;;;;;;;;2048911;29;20485;-59
2021/12/26 04:49:42;;;;;;;5.30;4.90;;;;;;;;;;2057048;28;20555;-60
2021/12/26 04:50:43;;;;;;;5.10;4.50;;;;;;;;;;2060574;28;20432;-59
2021/12/26 04:51:43;;;;;;;6.00;4.80;;;;;;;;;;2050437;28;20174;-60
2021/12/26 04:52:45;;;;;;;6.50;5.00;;;;;;;;;;2054645;28;20178;-60
2021/12/26 04:53:50;;;;;;;5.20;4.80;;;;;;;;;;2063039;28;20556;-59
2021/12/26 04:54:50;;;;;;;6.03;4.47;;;;;;;;;;2057269;28;20427;-59
2021/12/26 04:55:51;;;;;;;5.00;4.60;;;;;;;;;;2054443;28;20589;-59
2021/12/26 04:56:51;;;;;;;5.10;4.90;;;;;;;;;;2065532;28;20166;-59
2021/12/26 04:57:52;;;;;;;5.70;5.10;;;;;;;;;;2055455;28;20177;-58
2021/12/26 04:58:53;;;;;;;5.30;4.80;;;;;;;;;;2059162;28;20412;-58
2021/12/26 04:59:53;;;;;;;6.17;5.70;;;;;;;;;;2065637;28;20630;-60
2021/12/26 05:00:54;;;;;;;5.30;4.90;;;;;;;;;;2047645;28;20178;-61
2021/12/26 05:01:54;;;;;;;5.23;4.67;;;;;;;;;;2048093;29;20265;-59
2021/12/26 05:02:55;;;;;;;5.83;5.40;;;;;;;;;;2064481;28;20637;-60
2021/12/26 05:03:56;;;;;;;6.23;5.33;;;;;;;;;;2065859;28;20228;-59
2021/12/26 05:04:57;;;;;;;6.77;5.57;;;;;;;;;;2066879;28;20410;-58
2021/12/26 05:05:57;;;;;;;5.57;5.07;;;;;;;;;;2066629;28;20443;-58
2021/12/26 05:06:57;;;;;;;5.60;5.10;;;;;;;;;;2057904;28;20653;-60
2021/12/26 05:07:58;;;;;;;5.73;5.23;;;;;;;;;;2057185;28;20202;-58
2021/12/26 05:08:59;;;;;;;7.20;4.93;;;;;;;;;;2057440;28;20162;-57
2021/12/26 05:10:00;;;;;;;7.10;5.57;;;;;;;;;;2048521;28;20180;-58
2021/12/26 05:11:00;;;;;;;6.07;5.57;;;;;;;;;;2057170;28;20434;-60
2021/12/26 05:12:00;;;;;;;5.67;5.17;;;;;;;;;;2056814;28;20178;-60
2021/12/26 05:13:01;;;;;;;5.10;4.70;;;;;;;;;;2057655;28;20592;-60
2021/12/26 05:14:03;;;;;;;5.63;5.13;;;;;;;;;;2065638;28;20182;-57
2021/12/26 05:15:04;;;;;;;5.77;5.27;;;;;;;;;;2065892;28;20438;-59
2021/12/26 05:16:05;;;;;;;6.10;5.50;;;;;;;;;;2065130;28;20193;-59
2021/12/26 05:17:06;;;;;;;6.07;5.13;;;;;;;;;;2057052;28;20404;-61
2021/12/26 05:18:08;;;;;;;5.37;4.93;;;;;;;;;;2054790;28;20433;-57
2021/12/26 05:19:08;;;;;;;5.67;5.17;;;;;;;;;;2064571;28;20427;-61
2021/12/26 05:20:10;;;;;;;5.83;5.43;;;;;;;;;;2056377;28;20667;-62
2021/12/26 05:21:10;;;;;;;5.97;5.37;;;;;;;;;;2057458;28;20178;-60
2021/12/26 05:22:11;;;;;;;5.80;5.37;;;;;;;;;;2065225;28;20998;-61
2021/12/26 05:23:12;;;;;;;6.10;5.50;;;;;;;;;;2065226;28;20185;-60
2021/12/26 05:24:13;;;;;;;5.77;5.37;;;;;;;;;;2056896;28;20408;-59
2021/12/26 05:25:13;;;;;;;5.77;5.33;;;;;;;;;;2057073;28;20432;-60
2021/12/26 05:26:14;;;;;;;5.40;5.00;;;;;;;;;;2048663;28;20175;-58
2021/12/26 05:27:15;;;;;;;5.93;5.33;;;;;;;;;;2058007;28;20494;-55
2021/12/26 05:28:15;;;;;;;5.40;5.10;;;;;;;;;;2059261;28;20220;-54
2021/12/26 05:29:16;;;;;;;5.13;4.73;;;;;;;;;;2058463;28;20199;-59
2021/12/26 05:30:18;;;;;;;5.83;5.33;;;;;;;;;;2065998;28;20403;-58
2021/12/26 05:31:18;;;;;;;5.50;5.00;;;;;;;;;;2050493;29;20179;-59
2021/12/26 05:32:18;;;;;;;6.80;5.57;;;;;;;;;;2058611;28;20415;-59
2021/12/26 05:33:19;;;;;;;6.23;5.13;;;;;;;;;;2058815;28;20446;-56
2021/12/26 05:34:22;;;;;;;6.07;5.50;;;;;;;;;;2044726;28;20175;-59
2021/12/26 05:35:22;;;;;;;5.50;4.97;;;;;;;;;;2051238;29;20417;-59
2021/12/26 05:36:23;;;;;;;6.60;6.00;;;;;;;;;;2058110;28;20569;-61
2021/12/26 05:37:24;;;;;;;6.00;5.40;;;;;;;;;;2058910;28;20182;-60
2021/12/26 05:38:27;;;;;;;6.03;5.53;;;;;;;;;;2058281;28;20416;-61
2021/12/26 05:39:27;;;;;;;5.70;5.20;;;;;;;;;;2058158;28;20821;-57
2021/12/26 05:40:28;;;;;;;5.20;4.83;;;;;;;;;;2053558;28;20417;-58
2021/12/26 05:41:32;;;;;;;5.80;5.17;;;;;;;;;;2053003;28;20201;-59
2021/12/26 05:42:51;;;;;;;5.27;4.87;;;;;;;;;;2058977;28;20419;-61
2021/12/26 05:43:51;;;;;;;5.93;5.43;;;;;;;;;;2055048;28;20961;-59
2021/12/26 05:44:52;;;;;;;5.50;5.10;;;;;;;;;;2051928;28;20171;-60
2021/12/26 05:45:52;;;;;;;6.63;5.23;;;;;;;;;;2062737;28;20450;-60
2021/12/26 05:46:53;;;;;;;4.93;4.63;;;;;;;;;;2066176;28;20200;-59
2021/12/26 05:47:54;;;;;;;5.53;5.03;;;;;;;;;;2058033;28;20452;-61
2021/12/26 05:48:54;;;;;;;5.27;4.77;;;;;;;;;;2051236;28;20171;-60
2021/12/26 05:50:03;;;;;;;5.03;4.63;;;;;;;;;;2043140;29;20235;-60
2021/12/26 05:51:03;;;;;;;5.90;5.40;;;;;;;;;;2058120;28;20416;-59
2021/12/26 05:52:18;;;;;;;5.60;5.10;;;;;;;;;;2057146;28;20432;-58
2021/12/26 05:53:23;;;;;;;7.20;5.40;;;;;;;;;;2051502;28;20780;-60
2021/12/26 05:54:23;;;;;;;5.50;5.00;;;;;;;;;;2049833;28;20433;-60
2021/12/26 05:55:23;;;;;;;5.17;4.80;;;;;;;;;;2057402;28;20189;-60
2021/12/26 05:56:26;;;;;;;5.30;4.80;;;;;;;;;;2060490;28;20170;-59
2021/12/26 05:57:30;;;;;;;5.67;5.17;;;;;;;;;;2064223;28;20510;-54
2021/12/26 05:58:30;;;;;;;6.93;4.97;;;;;;;;;;2065424;28;20810;-59
2021/12/26 05:59:32;;;;;;;6.27;5.67;;;;;;;;;;2056714;28;20182;-57
2021/12/26 06:00:32;;;;;;;5.80;5.43;;;;;;;;;;2057175;28;20964;-59
2021/12/26 06:01:33;;;;;;;5.60;5.20;;;;;;;;;;2057252;28;20174;-62
2021/12/26 06:02:34;;;;;;;5.83;5.43;;;;;;;;;;2049230;28;20439;-61
2021/12/26 06:03:34;;;;;;;5.07;4.67;;;;;;;;;;2058987;28;20178;-57
2021/12/26 06:04:35;;;;;;;6.07;5.47;;;;;;;;;;2058935;28;20807;-58
2021/12/26 06:05:35;;;;;;;7.93;5.57;;;;;;;;;;2059239;28;20189;-57
2021/12/26 06:06:36;;;;;;;5.77;5.00;;;;;;;;;;2061517;28;20190;-58
2021/12/26 06:07:36;;;;;;;5.03;4.63;;;;;;;;;;2057023;28;20460;-59
2021/12/26 06:08:37;;;;;;;5.43;5.03;;;;;;;;;;2056709;28;20179;-59
2021/12/26 06:09:38;;;;;;;5.60;5.10;;;;;;;;;;2056022;28;20186;-57
2021/12/26 06:10:38;;;;;;;6.00;5.40;;;;;;;;;;2055825;28;20174;-60
2021/12/26 06:11:38;;;;;;;6.77;5.27;;;;;;;;;;2048526;29;20175;-57
2021/12/26 06:12:39;;;;;;;8.57;5.43;;;;;;;;;;2054785;28;20158;-59
2021/12/26 06:13:39;;;;;;;7.53;6.33;;;;;;;;;;2063802;28;20232;-59
2021/12/26 06:14:39;;;;;;;5.67;5.27;;;;;;;;;;2057003;28;20543;-59
2021/12/26 06:15:40;;;;;;;6.33;5.73;;;;;;;;;;2055969;28;20249;-57
2021/12/26 06:16:40;;;;;;;5.33;4.93;;;;;;;;;;2056524;28;20694;-61